createdAt,value
2022-11-15T00:02:31.487Z,8.50
2022-11-15T00:05:36.604Z,8.53
2022-11-15T00:08:39.264Z,8.52
2022-11-15T00:11:43.220Z,8.48
2022-11-15T00:14:45.856Z,8.47
2022-11-15T00:17:50.909Z,8.49
2022-11-15T00:20:53.555Z,8.46
2022-11-15T00:23:56.196Z,8.45
2022-11-15T00:27:00.152Z,8.48
2022-11-15T00:30:02.834Z,8.47
2022-11-15T00:33:06.082Z,8.44
2022-11-15T00:36:11.565Z,8.43
2022-11-15T00:39:14.179Z,8.40
2022-11-15T00:42:18.141Z,8.39
2022-11-15T00:45:20.921Z,8.42
2022-11-15T00:48:23.833Z,8.32
2022-11-15T00:51:26.492Z,8.25
2022-11-15T00:54:29.126Z,8.26
2022-11-15T00:57:33.200Z,8.28
2022-11-15T01:00:35.857Z,8.40
2022-11-15T01:03:39.516Z,8.36
2022-11-15T01:06:42.132Z,8.45
2022-11-15T01:09:44.752Z,8.56
2022-11-15T01:12:48.746Z,8.51
2022-11-15T01:15:51.356Z,8.56
2022-11-15T01:18:53.989Z,8.64
2022-11-15T01:21:56.596Z,8.58
2022-11-15T01:24:59.449Z,8.47
2022-11-15T01:28:03.404Z,8.40
2022-11-15T01:31:08.353Z,8.41
2022-11-15T01:34:10.967Z,8.32
2022-11-15T01:37:13.613Z,8.36
2022-11-15T01:40:16.403Z,8.41
2022-11-15T01:43:25.355Z,8.45
2022-11-15T01:46:33.388Z,8.35
2022-11-15T01:49:40.031Z,8.33
2022-11-15T01:52:43.595Z,8.36
2022-11-15T01:55:46.515Z,8.33
2022-11-15T01:58:52.560Z,8.31
2022-11-15T02:01:55.710Z,8.21
2022-11-15T02:04:58.412Z,8.31
2022-11-15T02:08:02.041Z,8.27
2022-11-15T02:11:06.703Z,8.38
2022-11-15T02:14:12.233Z,8.27
2022-11-15T02:17:33.330Z,8.22
2022-11-15T02:20:44.397Z,8.21
2022-11-15T02:24:14.234Z,8.28
2022-11-15T02:27:58.682Z,8.25
2022-11-15T02:31:07.522Z,8.26
2022-11-15T02:34:17.964Z,8.27
2022-11-15T02:37:28.894Z,8.36
2022-11-15T02:40:40.272Z,8.36
2022-11-15T02:44:00.118Z,8.41
2022-11-15T02:47:17.411Z,8.49
2022-11-15T02:50:23.334Z,8.45
2022-11-15T02:53:27.104Z,8.42
2022-11-15T02:56:29.771Z,8.36
2022-11-15T02:59:59.466Z,8.39
2022-11-15T03:03:31.321Z,8.41
2022-11-15T03:06:40.552Z,8.39
2022-11-15T03:09:52.457Z,8.38
2022-11-15T03:12:59.494Z,8.42
2022-11-15T03:16:08.289Z,8.41
2022-11-15T03:19:18.427Z,8.47
2022-11-15T03:22:24.868Z,8.41
2022-11-15T03:25:30.281Z,8.47
2022-11-15T03:28:38.336Z,8.44
2022-11-15T03:31:50.574Z,8.43
2022-11-15T03:35:00.133Z,8.37
2022-11-15T03:38:10.301Z,8.44
2022-11-15T03:41:22.441Z,8.43
2022-11-15T03:44:39.232Z,8.41
2022-11-15T03:47:45.759Z,8.34
2022-11-15T03:50:50.541Z,8.42
2022-11-15T03:53:53.607Z,8.35
2022-11-15T03:56:56.539Z,8.41
2022-11-15T03:59:59.181Z,8.44
2022-11-15T04:03:01.842Z,8.46
2022-11-15T04:06:06.262Z,8.46
2022-11-15T04:09:09.056Z,8.44
2022-11-15T04:12:11.668Z,8.50
2022-11-15T04:15:16.573Z,8.49
2022-11-15T04:18:19.190Z,8.51
2022-11-15T04:21:40.514Z,8.54
2022-11-15T04:24:43.138Z,8.48
2022-11-15T04:27:45.756Z,8.46
2022-11-15T04:30:48.555Z,8.38
2022-11-15T04:33:51.191Z,8.44
2022-11-15T04:37:12.710Z,8.29
2022-11-15T04:40:15.376Z,8.31
2022-11-15T04:43:18.026Z,8.29
2022-11-15T04:46:20.658Z,8.39
2022-11-15T04:49:23.292Z,8.39
2022-11-15T04:52:27.271Z,8.51
2022-11-15T04:55:29.874Z,8.64
2022-11-15T04:58:32.528Z,8.60
2022-11-15T05:01:35.240Z,8.69
2022-11-15T05:04:38.441Z,8.75
2022-11-15T05:07:42.477Z,8.74
2022-11-15T05:10:45.106Z,8.87
2022-11-15T05:13:47.953Z,8.91
2022-11-15T05:16:50.585Z,9.00
2022-11-15T05:19:53.402Z,9.00
2022-11-15T05:22:57.434Z,9.03
2022-11-15T05:26:06.426Z,9.01
2022-11-15T05:29:12.352Z,9.01
2022-11-15T05:32:15.210Z,8.72
2022-11-15T05:35:23.820Z,8.78
2022-11-15T05:38:28.129Z,8.55
2022-11-15T05:41:35.965Z,8.48
2022-11-15T05:44:41.350Z,8.41
2022-11-15T05:47:44.751Z,8.44
2022-11-15T05:50:49.245Z,8.43
2022-11-15T05:53:55.161Z,8.43
2022-11-15T05:56:57.829Z,8.36
2022-11-15T06:00:00.669Z,8.29
2022-11-15T06:03:03.448Z,8.32
2022-11-15T06:06:06.268Z,8.32
2022-11-15T06:09:10.245Z,8.27
2022-11-15T06:12:12.856Z,8.27
2022-11-15T06:15:15.501Z,8.24
2022-11-15T06:18:18.101Z,8.22
2022-11-15T06:21:20.997Z,8.38
2022-11-15T06:24:24.927Z,8.41
2022-11-15T06:27:27.535Z,8.42
2022-11-15T06:30:30.189Z,8.46
2022-11-15T06:33:33.212Z,8.47
2022-11-15T06:36:36.603Z,8.45
2022-11-15T06:39:40.584Z,8.59
2022-11-15T06:42:43.232Z,8.65
2022-11-15T06:45:45.837Z,8.67
2022-11-15T06:48:48.721Z,8.70
2022-11-15T06:51:51.352Z,8.73
2022-11-15T06:54:55.343Z,8.74
2022-11-15T06:57:57.941Z,8.72
2022-11-15T07:01:02.092Z,8.72
2022-11-15T07:04:04.797Z,8.57
2022-11-15T07:07:07.476Z,8.70
2022-11-15T07:10:11.846Z,8.82
2022-11-15T07:13:14.438Z,8.90
2022-11-15T07:16:17.028Z,8.98
2022-11-15T07:19:19.611Z,9.01
2022-11-15T07:22:22.249Z,8.99
2022-11-15T07:25:26.219Z,8.97
2022-11-15T07:28:29.674Z,9.01
2022-11-15T07:31:32.473Z,9.02
2022-11-15T07:34:35.059Z,9.08
2022-11-15T07:37:37.680Z,9.12
2022-11-15T07:40:41.653Z,9.21
2022-11-15T07:43:44.250Z,9.17
2022-11-15T07:46:46.912Z,9.23
2022-11-15T07:49:49.556Z,9.31
2022-11-15T07:52:56.006Z,9.32
2022-11-15T07:56:00.021Z,9.28
2022-11-15T07:59:02.659Z,9.34
2022-11-15T08:02:05.353Z,9.34
2022-11-15T08:05:08.801Z,9.39
2022-11-15T08:08:13.037Z,9.41
2022-11-15T08:11:17.060Z,9.37
2022-11-15T08:14:19.705Z,9.41
2022-11-15T08:17:22.341Z,9.43
2022-11-15T08:20:25.375Z,9.47
2022-11-15T08:23:28.633Z,9.49
2022-11-15T08:26:32.687Z,9.52
2022-11-15T08:29:35.398Z,9.54
2022-11-15T08:32:38.020Z,9.61
2022-11-15T08:35:40.735Z,9.61
2022-11-15T08:38:43.560Z,9.52
2022-11-15T08:41:47.514Z,9.56
2022-11-15T08:44:50.124Z,9.50
2022-11-15T08:47:54.363Z,9.56
2022-11-15T08:50:57.931Z,9.57
2022-11-15T08:54:00.540Z,9.70
2022-11-15T08:57:04.690Z,9.82
2022-11-15T09:00:08.567Z,9.95
2022-11-15T09:03:11.210Z,10.02
2022-11-15T09:06:14.204Z,10.11
2022-11-15T09:09:16.854Z,10.13
2022-11-15T09:12:20.941Z,10.29
2022-11-15T09:15:23.602Z,10.41
2022-11-15T09:18:26.578Z,10.56
2022-11-15T09:21:30.721Z,10.57
2022-11-15T09:24:33.342Z,10.59
2022-11-15T09:27:37.665Z,10.83
2022-11-15T09:30:40.264Z,10.90
2022-11-15T09:33:45.821Z,10.87
2022-11-15T09:36:48.487Z,10.84
2022-11-15T09:39:51.111Z,10.93
2022-11-15T09:43:08.214Z,10.86
2022-11-15T09:46:21.460Z,10.94
2022-11-15T09:49:24.524Z,10.83
2022-11-15T09:52:27.385Z,10.88
2022-11-15T09:55:37.133Z,10.98
2022-11-15T09:58:50.510Z,11.05
2022-11-15T10:02:01.812Z,11.11
2022-11-15T10:05:04.935Z,11.11
2022-11-15T10:08:18.492Z,11.15
2022-11-15T10:11:40.180Z,11.18
2022-11-15T10:14:45.382Z,11.27
2022-11-15T10:18:14.461Z,11.37
2022-11-15T10:21:21.724Z,11.44
2022-11-15T10:24:29.514Z,11.53
2022-11-15T10:27:32.210Z,11.53
2022-11-15T10:30:39.012Z,11.61
2022-11-15T10:33:41.677Z,11.62
2022-11-15T10:36:50.301Z,11.68
2022-11-15T10:40:05.730Z,11.70
2022-11-15T10:43:16.930Z,11.75
2022-11-15T10:46:46.127Z,11.69
2022-11-15T10:49:56.546Z,11.65
2022-11-15T10:53:00.982Z,11.79
2022-11-15T10:56:09.033Z,11.83
2022-11-15T10:59:20.227Z,11.84
2022-11-15T11:02:34.278Z,11.97
2022-11-15T11:05:42.255Z,12.03
2022-11-15T11:08:57.247Z,12.04
2022-11-15T11:12:00.420Z,11.95
2022-11-15T11:15:11.363Z,12.01
2022-11-15T11:18:21.369Z,12.00
2022-11-15T11:21:39.760Z,12.07
2022-11-15T11:24:48.058Z,12.18
2022-11-15T11:28:04.978Z,12.23
2022-11-15T11:31:22.111Z,12.27
2022-11-15T11:34:42.924Z,12.28
2022-11-15T11:37:51.244Z,12.25
2022-11-15T11:41:06.081Z,12.21
2022-11-15T11:44:20.562Z,12.23
2022-11-15T11:47:25.736Z,12.24
2022-11-15T11:50:29.997Z,12.30
2022-11-15T11:53:40.992Z,12.31
2022-11-15T11:56:47.176Z,12.24
2022-11-15T11:59:55.362Z,12.30
2022-11-15T12:03:08.817Z,12.29
2022-11-15T12:06:28.588Z,12.32
2022-11-15T12:09:35.764Z,12.35
2022-11-15T12:12:43.461Z,12.24
2022-11-15T12:15:50.808Z,12.35
2022-11-15T12:18:56.163Z,12.34
2022-11-15T12:22:04.367Z,12.37
2022-11-15T12:25:16.648Z,12.38
2022-11-15T12:28:27.702Z,12.47
2022-11-15T12:31:38.879Z,12.58
2022-11-15T12:34:47.690Z,12.77
2022-11-15T12:37:52.940Z,12.68
2022-11-15T12:41:17.962Z,12.77
2022-11-15T12:45:02.343Z,12.90
2022-11-15T12:48:44.393Z,12.97
2022-11-15T12:52:08.875Z,13.07
2022-11-15T12:55:35.284Z,13.12
2022-11-15T12:58:44.747Z,12.93
2022-11-15T13:02:03.204Z,13.11
2022-11-15T13:05:45.730Z,12.99
2022-11-15T13:08:51.832Z,13.13
2022-11-15T13:11:56.978Z,13.18
2022-11-15T13:15:00.585Z,13.32
2022-11-15T13:18:35.877Z,13.34
2022-11-15T13:22:08.689Z,13.35
2022-11-15T13:25:20.082Z,13.28
2022-11-15T13:28:32.712Z,13.05
2022-11-15T13:31:42.430Z,13.11
2022-11-15T13:34:52.459Z,13.10
2022-11-15T13:37:57.043Z,12.94
2022-11-15T13:41:01.644Z,13.04
2022-11-15T13:44:06.099Z,13.06
2022-11-15T13:47:14.678Z,13.28
2022-11-15T13:50:17.959Z,13.15
2022-11-15T13:53:20.651Z,13.19
2022-11-15T13:56:23.572Z,13.23
2022-11-15T13:59:29.532Z,13.24
2022-11-15T14:02:36.301Z,13.23
2022-11-15T14:05:39.368Z,13.26
2022-11-15T14:08:43.079Z,13.24
2022-11-15T14:11:53.489Z,13.62
2022-11-15T14:14:57.933Z,13.90
2022-11-15T14:18:01.045Z,13.66
2022-11-15T14:21:08.337Z,13.59
2022-11-15T14:24:16.970Z,13.38
2022-11-15T14:27:25.810Z,13.18
2022-11-15T14:30:29.766Z,13.15
2022-11-15T14:33:35.136Z,13.01
2022-11-15T14:36:37.812Z,12.81
2022-11-15T14:39:40.441Z,12.81
2022-11-15T14:42:43.268Z,12.77
2022-11-15T14:45:47.221Z,12.71
2022-11-15T14:48:49.899Z,12.56
2022-11-15T14:51:52.529Z,12.61
2022-11-15T14:54:55.480Z,12.58
2022-11-15T14:57:58.108Z,12.43
2022-11-15T15:01:04.337Z,12.41
2022-11-15T15:04:07.178Z,12.37
2022-11-15T15:07:09.899Z,12.32
2022-11-15T15:10:38.436Z,12.17
2022-11-15T15:13:35.891Z,12.21
2022-11-15T15:16:39.949Z,12.16
2022-11-15T15:19:42.650Z,12.14
2022-11-15T15:22:46.111Z,12.12
2022-11-15T15:25:50.305Z,12.07
2022-11-15T15:28:53.088Z,11.97
2022-11-15T15:31:57.032Z,11.95
2022-11-15T15:35:00.277Z,11.99
2022-11-15T15:38:03.136Z,12.00
2022-11-15T15:41:05.899Z,11.92
2022-11-15T15:44:08.535Z,11.96
2022-11-15T15:47:14.473Z,11.96
2022-11-15T15:50:24.143Z,11.97
2022-11-15T15:53:26.763Z,11.90
2022-11-15T15:56:29.416Z,11.90
2022-11-15T15:59:33.191Z,11.90
2022-11-15T16:02:40.502Z,11.96
2022-11-15T16:05:43.508Z,11.92
2022-11-15T16:09:08.275Z,11.94
2022-11-15T16:12:08.733Z,11.94
2022-11-15T16:15:11.701Z,11.89
2022-11-15T16:18:18.153Z,11.79
2022-11-15T16:21:20.810Z,11.83
2022-11-15T16:24:23.741Z,11.94
2022-11-15T16:27:26.385Z,11.98
2022-11-15T16:30:29.072Z,11.90
2022-11-15T16:33:34.102Z,11.98
2022-11-15T16:36:37.619Z,11.86
2022-11-15T16:39:40.372Z,11.93
2022-11-15T16:42:43.003Z,11.96
2022-11-15T16:45:45.697Z,11.79
2022-11-15T16:48:50.568Z,11.94
2022-11-15T16:51:53.351Z,11.97
2022-11-15T16:54:55.980Z,11.95
2022-11-15T16:57:59.039Z,11.92
2022-11-15T17:01:01.727Z,11.89
2022-11-15T17:04:12.730Z,11.93
2022-11-15T17:07:15.679Z,11.95
2022-11-15T17:10:18.622Z,11.96
2022-11-15T17:13:21.213Z,11.92
2022-11-15T17:16:23.809Z,11.79
2022-11-15T17:19:27.760Z,11.84
2022-11-15T17:22:30.408Z,11.86
2022-11-15T17:25:33.024Z,11.88
2022-11-15T17:28:36.481Z,11.80
2022-11-15T17:31:39.684Z,11.96
2022-11-15T17:34:43.672Z,11.91
2022-11-15T17:37:48.222Z,11.90
2022-11-15T17:40:50.906Z,11.95
2022-11-15T17:43:53.557Z,11.95
2022-11-15T17:46:56.197Z,11.80
2022-11-15T17:50:00.146Z,11.85
2022-11-15T17:53:02.768Z,11.85
2022-11-15T17:56:06.324Z,11.78
2022-11-15T17:59:13.684Z,11.84
2022-11-15T18:02:19.347Z,11.82
2022-11-15T18:05:23.294Z,11.86
2022-11-15T18:08:25.911Z,11.74
2022-11-15T18:11:30.498Z,11.93
2022-11-15T18:14:33.166Z,11.94
2022-11-15T18:17:37.220Z,11.79
2022-11-15T18:20:41.241Z,11.81
2022-11-15T18:23:44.823Z,11.91
2022-11-15T18:26:47.468Z,12.00
2022-11-15T18:29:50.072Z,11.98
2022-11-15T18:32:53.761Z,12.07
2022-11-15T18:36:06.398Z,12.13
2022-11-15T18:39:16.079Z,12.07
2022-11-15T18:42:18.683Z,12.06
2022-11-15T18:45:24.088Z,12.11
2022-11-15T18:48:30.357Z,11.84
2022-11-15T18:51:36.436Z,11.85
2022-11-15T18:54:39.029Z,11.94
2022-11-15T18:57:41.857Z,12.01
2022-11-15T19:00:44.506Z,11.97
2022-11-15T19:03:49.080Z,11.86
2022-11-15T19:06:53.888Z,11.99
2022-11-15T19:09:56.881Z,12.13
2022-11-15T19:12:59.487Z,11.92
2022-11-15T19:16:03.413Z,12.03
2022-11-15T19:19:08.607Z,11.92
2022-11-15T19:22:12.569Z,11.86
2022-11-15T19:25:15.245Z,11.81
2022-11-15T19:28:17.869Z,11.84
2022-11-15T19:31:21.470Z,11.95
2022-11-15T19:34:24.088Z,11.87
2022-11-15T19:37:28.069Z,11.90
2022-11-15T19:40:31.345Z,11.84
2022-11-15T19:43:34.713Z,11.97
2022-11-15T19:46:38.300Z,11.97
2022-11-15T19:49:41.003Z,11.89
2022-11-15T19:52:45.177Z,11.91
2022-11-15T19:55:55.076Z,11.83
2022-11-15T19:58:57.986Z,11.87
2022-11-15T20:02:00.599Z,11.85
2022-11-15T20:05:03.331Z,11.80
2022-11-15T20:08:07.547Z,11.94
2022-11-15T20:11:10.615Z,11.61
2022-11-15T20:14:13.867Z,11.76
2022-11-15T20:17:16.537Z,11.75
2022-11-15T20:20:19.351Z,11.70
2022-11-15T20:23:23.677Z,11.77
2022-11-15T20:26:26.399Z,11.73
2022-11-15T20:29:29.027Z,11.90
2022-11-15T20:32:32.194Z,11.78
2022-11-15T20:35:34.975Z,11.80
2022-11-15T20:38:39.419Z,11.80
2022-11-15T20:41:42.071Z,11.82
2022-11-15T20:44:44.706Z,11.84
2022-11-15T20:47:47.373Z,11.72
2022-11-15T20:50:50.348Z,11.69
2022-11-15T20:53:54.315Z,11.81
2022-11-15T20:56:56.940Z,11.82
2022-11-15T21:00:04.367Z,11.85
2022-11-15T21:03:08.388Z,11.83
2022-11-15T21:06:11.398Z,11.76
2022-11-15T21:09:32.969Z,11.83
2022-11-15T21:12:35.598Z,11.69
2022-11-15T21:15:38.240Z,11.83
2022-11-15T21:18:40.852Z,11.73
2022-11-15T21:21:43.557Z,11.90
2022-11-15T21:24:47.586Z,11.73
2022-11-15T21:27:50.172Z,11.54
2022-11-15T21:30:54.938Z,11.68
2022-11-15T21:33:57.937Z,11.80
2022-11-15T21:37:00.763Z,11.70
2022-11-15T21:40:05.324Z,11.70
2022-11-15T21:43:07.980Z,11.41
2022-11-15T21:46:10.692Z,11.33
2022-11-15T21:49:13.329Z,11.59
2022-11-15T21:52:15.907Z,11.48
2022-11-15T21:55:19.889Z,11.43
2022-11-15T21:58:23.193Z,11.52
2022-11-15T22:01:44.996Z,11.43
2022-11-15T22:04:47.685Z,11.51
2022-11-15T22:07:50.321Z,11.55
2022-11-15T22:10:56.644Z,11.38
2022-11-15T22:13:59.740Z,11.41
2022-11-15T22:17:02.354Z,11.46
2022-11-15T22:20:43.029Z,11.45
2022-11-15T22:23:39.245Z,11.33
2022-11-15T22:26:43.281Z,11.29
2022-11-15T22:29:45.979Z,11.25
2022-11-15T22:32:48.764Z,11.39
2022-11-15T22:35:52.077Z,11.51
2022-11-15T22:38:54.803Z,11.36
2022-11-15T22:41:59.064Z,11.33
2022-11-15T22:45:01.748Z,11.05
2022-11-15T22:48:04.572Z,11.32
2022-11-15T22:51:08.412Z,11.38
2022-11-15T22:54:11.075Z,11.27
2022-11-15T22:57:15.165Z,11.26
2022-11-15T23:00:18.614Z,11.05
2022-11-15T23:03:22.393Z,11.14
2022-11-15T23:06:25.153Z,11.20
2022-11-15T23:09:27.848Z,11.18
2022-11-15T23:12:45.786Z,10.97
2022-11-15T23:16:07.553Z,10.81
2022-11-15T23:19:12.104Z,11.06
2022-11-15T23:22:32.191Z,11.11
2022-11-15T23:25:34.872Z,11.03
2022-11-15T23:28:38.954Z,10.87
2022-11-15T23:32:02.406Z,11.11
2022-11-15T23:35:06.525Z,10.93
2022-11-15T23:38:09.182Z,11.04
2022-11-15T23:41:11.881Z,11.07
2022-11-15T23:44:15.960Z,10.91
2022-11-15T23:47:18.819Z,10.83
2022-11-15T23:50:21.509Z,10.80
2022-11-15T23:53:24.244Z,10.94
2022-11-15T23:56:27.362Z,10.78
2022-11-15T23:59:31.408Z,10.98
